Weather observations for the past three days for
Sedona Airport
Imperial (Metric)
Date Time (mst) Wind (mph) Vis. (mi.) Weather Sky Cond. Temperature (ºF) Relative Humidity Wind Chill (°F) Heat Index (°F) Pressure Precipitation (in)
Air Dwpt 6 hour altimeter (in) sea level (mb) 1 hr 3 hr 6 hr
Max. Min.
07 13:55 Vrbl 5 G 13 10.00 Fair CLR 80.6 10.4 7% 78 30.03 0.0
07 13:35 W 7 G 16 10.00 Fair CLR 78.8 8.6 7% 77 30.04 0.0
07 13:15 Vrbl 5 G 12 10.00 Fair CLR 82.4 12.2 7% 80 30.05 0.0
07 12:55 N 8 G 17 10.00 Fair CLR 78.8 10.4 7% 77 30.06 0.0
07 12:35 Vrbl 5 G 13 10.00 Fair CLR 80.6 10.4 7% 78 30.06 0.0
07 12:15 Vrbl 5 G 15 10.00 Fair CLR 77 14 9% 76 30.07 0.0
07 11:55 Vrbl 7 G 15 10.00 Fair CLR 80.6 14 8% 78 30.08 0.0
07 11:35 E 13 10.00 Fair CLR 80.6 15.8 9% 79 30.09 0.0
07 11:15 E 10 10.00 Fair CLR 75.2 15.8 10% 75 30.09 0.0
07 10:55 Vrbl 6 G 15 10.00 Fair CLR 78.8 17.6 10% 77 30.1 0.0
07 10:35 Vrbl 7 G 14 10.00 Fair CLR 73.4 17.6 12% 30.11 0.0
07 10:15 N 13 G 18 10.00 Fair CLR 73.4 17.6 12% 30.11 0.0
07 09:55 NE 9 G 15 10.00 Fair CLR 73.4 19.4 13% 30.12 0.0
07 09:35 Vrbl 6 G 13 10.00 Fair CLR 71.6 19.4 14% 30.12 0.0
07 09:15 Vrbl 5 G 13 10.00 Fair CLR 71.6 19.4 14% 30.12 0.0
07 08:55 E 9 G 18 10.00 Fair CLR 69.8 19.4 15% 30.13 0.0
07 08:35 E 10 G 18 10.00 Fair CLR 68 17.6 14% 30.13 0.0
07 08:15 E 9 10.00 Fair CLR 68 19.4 16% 30.14 0.0
07 07:55 Vrbl 6 10.00 Fair CLR 64.4 19.4 18% 30.14 0.0
07 07:35 NE 7 G 14 10.00 Fair CLR 62.6 19.4 19% 30.15 0.0
07 07:15 NE 10 10.00 Fair CLR 60.8 17.6 19% 30.15 0.0
07 06:55 NE 12 10.00 Fair CLR 57.2 17.6 21% 30.14 0.0
07 06:35 NE 10 G 18 10.00 Fair CLR 57.2 17.6 21% 30.14 0.0
07 06:15 NE 13 G 20 10.00 Fair CLR 57.2 17.6 21% 30.14 0.0
07 05:55 NE 13 10.00 Fair CLR 55.4 17.6 23% 30.14 0.0
07 05:35 NE 15 10.00 Fair CLR 55.4 17.6 23% 30.14 0.0
07 05:15 NE 13 10.00 Fair CLR 55.4 17.6 23% 30.14 0.0
07 04:55 NE 14 10.00 Fair CLR 55.4 19.4 24% 30.14 0.0
07 04:35 NE 10 G 16 10.00 Fair CLR 57.2 19.4 23% 30.14 0.0
07 04:15 N 13 10.00 Fair CLR 55.4 19.4 24% 30.14 0.0
07 03:55 N 10 10.00 Fair CLR 55.4 19.4 24% 30.14 0.0
07 03:35 NE 12 G 17 10.00 Fair CLR 55.4 21.2 26% 30.14 0.0
07 03:15 NE 14 10.00 Fair CLR 57.2 23 27% 30.14 0.0
07 02:55 NE 13 10.00 Fair CLR 59 23 25% 30.14 0.0
07 02:35 E 15 10.00 Fair CLR 59 24.8 27% 30.13 0.0
07 02:15 NE 14 G 22 10.00 Fair CLR 57.2 24.8 29% 30.13 0.0
07 01:55 NE 14 10.00 Fair CLR 57.2 26.6 31% 30.13 0.0
07 01:35 NE 14 10.00 Fair CLR 57.2 28.4 33% 30.13 0.0
07 01:15 NE 14 10.00 Fair CLR 55.4 30.2 38% 30.13 0.0
07 00:55 NE 13 10.00 Fair CLR 57.2 30.2 36% 30.13 0.0
07 00:35 NE 13 10.00 Fair CLR 57.2 30.2 36% 30.13 0.0
07 00:15 N 12 10.00 Fair CLR 57.2 30.2 36% 30.13 0.0
06 23:55 NE 12 10.00 Fair CLR 57.2 30.2 36% 30.13 0.0
06 23:35 NE 8 10.00 Fair CLR 57.2 30.2 36% 30.12 0.0
06 23:15 NE 5 10.00 Fair CLR 59 30.2 34% 30.12 0.0
06 22:55 Calm 10.00 Fair CLR 60.8 28.4 29% 30.11 0.0
06 22:35 Vrbl 3 10.00 Fair CLR 60.8 28.4 29% 30.11 0.0
06 22:15 Vrbl 6 10.00 Fair CLR 59 28.4 31% 30.1 0.0
06 21:55 SE 8 10.00 Fair CLR 62.6 28.4 27% 30.1 0.0
06 21:35 SE 6 10.00 Fair CLR 62.6 28.4 27% 30.09 0.0
06 21:15 S 5 10.00 Fair CLR 62.6 28.4 27% 30.08 0.0
06 20:55 SE 9 10.00 A Few Clouds FEW110 64.4 28.4 26% 30.08 0.0
06 20:15 SE 9 10.00 Partly Cloudy SCT120 64.4 28.4 26% 30.06 0.0
06 19:55 S 8 10.00 Partly Cloudy SCT110 66.2 26.6 22% 30.04 0.0
06 19:35 S 8 10.00 Fair CLR 66.2 26.6 22% 30.03 0.0
06 19:15 SW 9 G 16 10.00 Fair CLR 68 26.6 21% 30.02 0.0
06 18:55 SW 8 G 15 10.00 Partly Cloudy SCT120 69.8 26.6 20% 30.01 0.0
06 18:35 SW 9 10.00 Partly Cloudy SCT120 71.6 24.8 17% 30 0.0
06 18:15 SW 6 10.00 A Few Clouds FEW120 73.4 24.8 16% 30 0.0
06 17:55 S 8 10.00 Fair CLR 73.4 24.8 16% 30 0.0
06 17:35 SW 6 10.00 Fair CLR 75.2 24.8 15% 75 29.99 0.0
06 17:15 S 8 G 20 10.00 A Few Clouds FEW110 75.2 24.8 15% 75 29.99 0.0
06 16:55 S 9 G 16 10.00 A Few Clouds FEW110 75.2 26.6 16% 76 29.99 0.0
06 16:35 Vrbl 7 10.00 A Few Clouds FEW110 75.2 26.6 16% 76 29.99 0.0
06 15:55 Vrbl 7 G 18 10.00 Fair CLR 73.4 26.6 17% 30 0.0
06 15:35 SW 10 G 16 10.00 Fair CLR 75.2 26.6 16% 76 30 0.0
06 15:15 Vrbl 7 G 16 10.00 Fair CLR 75.2 26.6 16% 76 30.01 0.0
06 14:35 NW 8 G 21 10.00 Fair CLR 73.4 26.6 17% 30.03 0.0
06 14:15 W 7 G 13 10.00 Fair CLR 71.6 26.6 19% 30.04 0.0
06 13:55 SE 7 G 13 10.00 Fair CLR 71.6 26.6 19% 30.04 0.0
06 13:35 NW 8 G 16 10.00 Fair CLR 69.8 28.4 21% 30.05 0.0
06 13:15 Vrbl 5 10.00 Fair CLR 68 28.4 23% 30.05 0.0
06 12:55 Vrbl 8 G 22 10.00 Fair CLR 71.6 28.4 20% 30.06 0.0
06 12:35 S 10 G 16 10.00 Fair CLR 69.8 28.4 21% 30.06 0.0
06 12:15 Vrbl 3 G 12 10.00 Fair CLR 68 28.4 23% 30.07 0.0
06 11:55 Vrbl 6 G 16 10.00 Fair CLR 68 28.4 23% 30.08 0.0
06 11:35 Vrbl 3 G 15 10.00 Fair CLR 64.4 28.4 26% 30.08 0.0
06 11:15 Vrbl 7 10.00 Fair CLR 68 30.2 24% 30.09 0.0
06 10:55 S 8 G 15 10.00 Fair CLR 66.2 30.2 26% 30.09 0.0
06 10:35 Vrbl 6 10.00 Fair CLR 62.6 28.4 27% 30.09 0.0
06 10:15 Vrbl 5 10.00 Fair CLR 62.6 28.4 27% 30.09 0.0
06 09:55 Calm 10.00 Fair CLR 60.8 28.4 29% 30.09 0.0
06 09:35 Calm 10.00 Fair CLR 62.6 30.2 30% 30.09 0.0
06 09:15 Vrbl 7 10.00 Fair CLR 60.8 32 34% 30.08 0.0
06 08:55 Vrbl 5 10.00 Fair CLR 57.2 30.2 36% 30.09 0.0
06 08:35 Calm 10.00 Fair CLR 55.4 30.2 38% 30.09 0.0
06 08:15 Vrbl 3 10.00 Fair CLR 55.4 30.2 38% 30.08 0.0
06 07:55 Calm 10.00 Fair CLR 53.6 30.2 41% 30.08 0.0
06 07:35 NE 3 10.00 Fair CLR 51.8 30.2 44% 30.07 0.0
06 07:15 NE 7 10.00 Fair CLR 50 30.2 47% 48 30.07 0.0
06 06:55 NE 9 10.00 Fair CLR 48.2 30.2 50% 45 30.07 0.0
06 06:35 NE 10 10.00 Fair CLR 46.4 30.2 53% 42 30.06 0.0
06 06:15 NE 10 10.00 Fair CLR 44.6 30.2 57% 40 30.06 0.0
06 05:55 N 10 10.00 Fair CLR 44.6 30.2 57% 40 30.05 0.0
06 05:35 N 8 10.00 Fair CLR 44.6 30.2 57% 41 30.04 0.0
06 04:55 Calm 10.00 Fair CLR 46.4 30.2 53% 30.03 0.0
06 04:35 NE 5 10.00 Fair CLR 44.6 30.2 57% 43 30.04 0.0
06 04:15 N 6 10.00 Fair CLR 44.6 32 61% 42 30.03 0.0
06 03:55 Calm 10.00 Fair CLR 46.4 30.2 53% 30.03 0.0
06 03:35 Calm 10.00 Fair CLR 46.4 30.2 53% 30.02 0.0
06 03:15 Calm 10.00 Fair CLR 46.4 30.2 53% 30.02 0.0
06 02:55 Calm 10.00 Fair CLR 48.2 30.2 50% 30.02 0.0
06 02:35 Calm 10.00 Fair CLR 46.4 30.2 53% 30.01 0.0
06 02:15 N 6 10.00 Fair CLR 46.4 32 57% 44 30.01 0.0
06 01:55 NE 7 10.00 Fair CLR 46.4 32 57% 43 30.01 0.0
06 01:35 N 9 10.00 Fair CLR 46.4 32 57% 42 30.01 0.0
06 01:15 Vrbl 5 10.00 Fair CLR 48.2 32 54% 47 30.01 0.0
06 00:55 N 3 10.00 Fair CLR 48.2 32 54% 30.01 0.0
06 00:35 Calm 10.00 Fair CLR 48.2 33.8 58% 30.01 0.0
06 00:15 NE 5 10.00 Fair CLR 48.2 33.8 58% 47 30 0.0
05 23:55 NE 3 10.00 Fair CLR 48.2 32 54% 30 0.0
05 23:35 N 5 10.00 A Few Clouds FEW070 50 33.8 54% 49 30 0.0
05 23:15 NE 8 10.00 Mostly Cloudy BKN070 48.2 37.4 66% 45 30 0.0
05 22:55 N 8 10.00 Partly Cloudy SCT070 48.2 37.4 66% 45 29.99 0.0
05 22:35 NE 10 10.00 A Few Clouds FEW070 48.2 37.4 66% 44 29.99 0.0
05 22:15 NE 10 10.00 Overcast OVC070 50 37.4 62% 46 29.99 0.0
05 21:55 N 9 10.00 Overcast BKN070 OVC075 50 37.4 62% 47 29.99 0.0
05 21:35 N 9 10.00 Overcast OVC070 50 39.2 67% 47 29.98 0.0
05 21:15 N 6 10.00 Overcast OVC070 51.8 37.4 58% 29.98 0.0
05 20:55 Calm 10.00 Overcast FEW004 FEW055 OVC070 51.8 35.6 54% 29.97 0.0
05 20:35 Vrbl 6 G 15 10.00 Light Rain FEW004 SCT055 OVC070 50 39.2 67% 48 29.96 0.0
05 20:15 E 9 G 15 10.00 Light Rain FEW034 SCT044 BKN055 51.8 39.2 62% 29.95 0.0
05 19:55 W 3 G 21 6.00 Light Rain Haze SCT035 BKN060 OVC070 51.8 32 47% 29.95 0.0
05 19:35 NW 17 G 23 10.00 Overcast BKN065 OVC075 55.4 32 41% 29.93 0.0
05 19:15 Vrbl 3 10.00 Overcast FEW060 OVC075 57.2 30.2 36% 29.92 0.0
05 18:55 S 8 10.00 Overcast OVC075 55.4 30.2 38% 29.91 0.0
05 18:35 NE 8 10.00 Overcast BKN075 OVC090 55.4 32 41% 29.9 0.0
05 18:15 Vrbl 8 G 17 10.00 Overcast BKN080 OVC095 55.4 33.8 44% 29.89 0.0
05 17:55 Vrbl 3 G 20 10.00 Overcast BKN080 OVC090 55.4 30.2 38% 29.89 0.0
05 17:35 NE 9 10.00 Mostly Cloudy BKN075 BKN085 55.4 33.8 44% 29.89 0.0
05 17:15 N 10 G 20 10.00 Overcast BKN075 OVC090 55.4 33.8 44% 29.88 0.0
05 16:55 NE 9 G 25 10.00 Overcast SCT070 OVC080 55.4 33.8 44% 29.87 0.0
05 16:35 Vrbl 5 G 13 10.00 Overcast BKN065 BKN090 OVC110 57.2 33.8 41% 29.87 0.0
05 16:15 S 13 G 22 10.00 Thunderstorm in Vicinity FEW065 FEW075 BKN110 60.8 28.4 29% 29.86 0.0
05 15:55 S 12 G 29 10.00 Thunderstorm in Vicinity FEW065 FEW075 SCT085 60.8 30.2 31% 29.86 0.0
05 15:35 S 16 G 28 10.00 Partly Cloudy FEW065 SCT080 SCT090 62.6 28.4 27% 29.86 0.0
05 15:15 S 17 G 33 10.00 Partly Cloudy SCT065 SCT075 SCT100 66.2 30.2 26% 29.86 0.0
05 14:55 S 17 G 30 10.00 Mostly Cloudy BKN065 BKN080 BKN095 64.4 32 30% 29.87 0.0
05 14:35 S 16 G 26 10.00 Thunderstorm in Vicinity SCT065 SCT080 BKN100 66.2 32 28% 29.87 0.0
05 14:15 S 17 G 29 10.00 Thunderstorm in Vicinity BKN065 BKN075 BKN090 66.2 32 28% 29.88 0.0
05 13:55 S 20 G 30 10.00 Mostly Cloudy SCT065 BKN075 BKN090 64.4 30.2 28% 29.88 0.0
05 13:35 S 16 G 25 10.00 Thunderstorm in Vicinity FEW050 SCT070 68 30.2 24% 29.88 0.0
05 13:15 SE 20 G 33 10.00 Thunderstorm in Vicinity FEW045 SCT050 SCT060 66.2 35.6 32% 29.88 0.0
05 12:55 SE 17 G 28 10.00 Thunderstorm in Vicinity FEW035 FEW043 68 41 38% 29.88 0.0
05 12:35 SE 23 G 36 10.00 Thunderstorm in Vicinity and Breezy SCT035 SCT041 66.2 41 40% 29.88 0.0
05 12:15 SE 16 G 24 10.00 Thunderstorm in Vicinity FEW034 66.2 41 40% 29.9 0.0
05 11:55 S 9 G 22 10.00 A Few Clouds FEW036 64.4 41 43% 29.92 0.0
05 11:35 SE 15 G 21 10.00 Partly Cloudy SCT060 62.6 42.8 49% 29.92 0.0
05 11:15 SE 12 G 20 10.00 Overcast OVC060 59 42.8 55% 29.93 0.0
05 10:55 SE 18 G 26 10.00 Overcast OVC060 57.2 42.8 59% 29.93 0.0
05 10:35 SE 13 G 22 10.00 Overcast FEW027 BKN065 OVC075 59 41 51% 29.93 0.0
05 09:55 SE 20 G 26 10.00 Mostly Cloudy FEW026 SCT037 BKN070 60.8 42.8 52% 29.92 0.0
05 09:35 S 12 G 18 10.00 Overcast FEW046 FEW055 OVC070 57.2 41 55% 29.93 0.0
05 09:15 S 10 G 16 10.00 Mostly Cloudy FEW024 BKN070 59 42.8 55% 29.93 0.0
05 08:55 SE 13 G 20 10.00 Mostly Cloudy BKN025 BKN032 59 42.8 55% 29.92 0.0
05 08:35 S 9 G 17 10.00 Mostly Cloudy BKN026 BKN031 59 41 51% 29.92 0.0
05 08:15 SE 8 10.00 Partly Cloudy FEW027 FEW040 SCT085 55.4 42.8 63% 29.93 0.0
05 07:55 S 9 10.00 Mostly Cloudy SCT040 SCT046 BKN085 53.6 42.8 67% 29.93 0.0
05 07:35 SE 9 G 16 10.00 Mostly Cloudy SCT044 BKN085 53.6 42.8 67% 29.93 0.0
05 07:15 S 10 10.00 Mostly Cloudy SCT045 BKN085 51.8 41 67% 29.93 0.0
05 06:55 S 8 G 17 10.00 Mostly Cloudy BKN045 51.8 41 67% 29.93 0.0
05 06:35 S 9 G 17 10.00 Overcast SCT038 OVC045 51.8 41 67% 29.93 0.0
05 06:15 S 10 G 16 10.00 Overcast OVC038 51.8 41 67% 29.92 0.0
05 05:35 S 10 10.00 Mostly Cloudy BKN035 BKN044 51.8 41 67% 29.91 0.0
05 05:15 S 9 10.00 Partly Cloudy SCT034 SCT045 51.8 39.2 62% 29.9 0.0
05 04:55 S 13 10.00 Overcast OVC034 51.8 39.2 62% 29.91 0.0
05 04:15 S 9 G 16 10.00 Overcast OVC034 53.6 39.2 58% 29.92 0.0
05 03:55 S 10 10.00 Overcast BKN035 BKN041 OVC110 53.6 39.2 58% 29.92 0.0
05 03:35 S 8 10.00 Overcast FEW034 SCT075 OVC110 53.6 37.4 54% 29.92 0.0
05 03:15 Vrbl 6 G 12 10.00 Mostly Cloudy FEW047 SCT060 BKN075 53.6 37.4 54% 29.92 0.0
05 02:55 S 9 10.00 Overcast FEW042 BKN060 OVC110 53.6 37.4 54% 29.94 0.0
05 02:35 Vrbl 7 G 14 10.00 Overcast SCT041 BKN046 OVC060 53.6 37.4 54% 29.95 0.0
05 02:15 S 9 10.00 Overcast OVC049 53.6 37.4 54% 29.95 0.0
05 01:55 S 9 G 17 10.00 Overcast BKN049 OVC055 53.6 37.4 54% 29.95 0.0
05 01:35 S 9 G 16 10.00 Overcast SCT047 BKN055 OVC110 53.6 37.4 54% 29.95 0.0
05 01:15 S 12 G 18 10.00 Overcast FEW045 BKN055 OVC110 55.4 37.4 51% 29.95 0.0
05 00:55 S 10 10.00 Overcast FEW047 FEW060 OVC110 55.4 35.6 47% 29.96 0.0
05 00:35 S 9 G 21 10.00 Overcast OVC110 55.4 35.6 47% 29.96 0.0
05 00:15 S 14 10.00 Overcast OVC110 55.4 33.8 44% 29.96 0.0
04 23:55 S 13 G 24 10.00 Mostly Cloudy BKN110 55.4 33.8 44% 29.96 0.0
04 23:35 SW 12 10.00 Partly Cloudy SCT049 SCT110 55.4 33.8 44% 29.96 0.0
04 23:15 S 13 G 23 10.00 Partly Cloudy SCT048 55.4 33.8 44% 29.97 0.0
04 22:55 S 14 10.00 Fair CLR 55.4 32 41% 29.96 0.0
04 22:35 S 16 G 23 10.00 Fair CLR 57.2 28.4 33% 29.97 0.0
04 22:15 S 10 10.00 Fair CLR 57.2 24.8 29% 29.97 0.0
04 21:55 S 15 G 23 10.00 Fair CLR 57.2 26.6 31% 29.97 0.0
04 21:35 S 15 G 22 10.00 A Few Clouds FEW048 57.2 26.6 31% 29.98 0.0
04 21:15 S 9 G 16 10.00 Partly Cloudy SCT049 57.2 24.8 29% 29.98 0.0
04 20:55 S 17 10.00 A Few Clouds FEW049 59 26.6 29% 29.97 0.0
04 20:35 S 17 G 26 10.00 Fair CLR 59 26.6 29% 29.96 0.0
04 20:15 S 16 G 24 10.00 Fair CLR 59 26.6 29% 29.95 0.0
04 19:55 S 15 G 24 10.00 Fair CLR 59 26.6 29% 29.94 0.0
04 19:35 S 16 G 23 10.00 Fair CLR 60.8 24.8 25% 29.94 0.0
04 19:15 S 15 G 26 10.00 Fair CLR 60.8 26.6 27% 29.94 0.0
04 18:55 S 13 G 25 10.00 Fair CLR 60.8 24.8 25% 29.94 0.0
04 18:35 S 17 G 25 10.00 Fair CLR 62.6 24.8 24% 29.93 0.0
04 18:15 S 14 G 31 10.00 Fair CLR 62.6 23 22% 29.94 0.0
04 17:55 S 22 G 31 10.00 Fair and Breezy CLR 62.6 23 22% 29.94 0.0
04 17:35 S 15 G 31 10.00 Fair CLR 64.4 23 21% 29.94 0.0
04 17:15 S 20 G 31 10.00 Fair CLR 64.4 23 21% 29.94 0.0
04 16:55 S 17 G 26 10.00 Fair CLR 64.4 24.8 22% 29.95 0.0
04 16:35 S 15 G 26 10.00 Fair CLR 64.4 24.8 22% 29.94 0.0
04 16:15 S 17 G 28 10.00 Fair CLR 66.2 26.6 22% 29.95 0.0
04 15:55 S 17 G 30 10.00 Fair CLR 66.2 28.4 24% 29.95 0.0
04 15:35 SW 10 G 24 10.00 Fair CLR 68 28.4 23% 29.95 0.0
04 15:15 SW 13 G 28 10.00 Fair CLR 66.2 28.4 24% 29.95 0.0
04 14:55 S 17 G 24 10.00 Fair CLR 68 33.8 28% 29.96 0.0
04 14:35 S 13 G 23 10.00 A Few Clouds FEW065 68 33.8 28% 29.96 0.0
04 14:15 SE 13 G 32 10.00 A Few Clouds FEW065 68 33.8 28% 29.96 0.0
Date Time (mst) Wind (mph) Vis. (mi.) Weather Sky Cond. Air Dwpt Max. Min. Relative Humidity Wind Chill (°F) Heat Index (°F) altimeter (in) sea level (mb) 1 hr 3 hr 6 hr
6 hour
Temperature (ºF) Pressure Precipitation (in)